Plantation, Florida
Current Conditions -  °F | °C
As of 6:53 AM on Thursday 27 Nov 2014 (Local Time) from KFXE Reporting Station
Clear Clear  
Wind Chill: 55°   Ceiling: Unl
Heat Index: 55°   Visibility: 10mi
Dew Point: 45°   Wind: 9mph
Humidity: 69%   Direction: 330°NNW
Pressure: 30.24"   Gusts: NA
Location:  26.13°N, 80.24°W
Report Text: KFXE 271153Z 33008KT 10SM CLR 13/07 A3024 RMK AO2 SLP244 70053 T01280072 10139 20122 53019 $
Loading
Personal Weather Stations






























Interactive Weather Map New forecast layout! Learn more

10-Day Weather Forecast

Advertisements
Track Severe Weather on mobile